createdAt,value
2023-02-27T00:00:51.043Z,1.10
2023-02-27T00:03:52.475Z,1.00
2023-02-27T00:06:53.854Z,0.97
2023-02-27T00:09:55.222Z,1.00
2023-02-27T00:12:56.622Z,1.00
2023-02-27T00:15:59.180Z,1.20
2023-02-27T00:19:02.286Z,1.40
2023-02-27T00:22:03.695Z,0.97
2023-02-27T00:25:05.978Z,0.93
2023-02-27T00:28:08.171Z,2.17
2023-02-27T00:31:09.650Z,0.97
2023-02-27T00:34:11.473Z,0.80
2023-02-27T00:37:12.874Z,1.03
2023-02-27T00:40:14.964Z,1.10
2023-02-27T00:43:16.466Z,1.00
2023-02-27T00:46:17.895Z,1.00
2023-02-27T00:49:19.710Z,1.00
2023-02-27T00:52:21.348Z,1.70
2023-02-27T00:55:22.747Z,1.00
2023-02-27T00:58:24.441Z,0.80
2023-02-27T01:01:26.220Z,1.00
2023-02-27T01:04:27.791Z,1.07
2023-02-27T01:07:29.163Z,1.07
2023-02-27T01:10:30.627Z,1.30
2023-02-27T01:13:33.261Z,0.90
2023-02-27T01:16:34.723Z,1.20
2023-02-27T01:19:36.304Z,1.10
2023-02-27T01:22:40.105Z,1.00
2023-02-27T01:25:41.857Z,1.30
2023-02-27T01:28:43.218Z,1.10
2023-02-27T01:31:48.667Z,1.03
2023-02-27T01:34:50.224Z,1.10
2023-02-27T01:37:53.103Z,0.90
2023-02-27T01:40:54.587Z,0.97
2023-02-27T01:44:08.324Z,1.10
2023-02-27T01:47:12.082Z,1.10
2023-02-27T01:50:14.618Z,0.93
2023-02-27T01:53:17.626Z,1.20
2023-02-27T01:56:24.186Z,0.80
2023-02-27T01:59:26.068Z,1.07
2023-02-27T02:02:34.588Z,1.03
2023-02-27T02:05:36.146Z,1.10
2023-02-27T02:08:43.802Z,1.20
2023-02-27T02:11:45.715Z,0.87
2023-02-27T02:14:47.211Z,1.17
2023-02-27T02:18:09.581Z,0.90
2023-02-27T02:21:32.758Z,1.00
2023-02-27T02:25:00.584Z,0.73
2023-02-27T02:28:23.369Z,1.10
2023-02-27T02:31:38.744Z,1.00
2023-02-27T02:35:05.946Z,1.00
2023-02-27T02:38:45.156Z,0.83
2023-02-27T02:41:59.266Z,0.80
2023-02-27T02:45:12.754Z,1.00
2023-02-27T02:48:30.514Z,1.00
2023-02-27T02:51:47.736Z,0.90
2023-02-27T02:55:01.622Z,1.10
2023-02-27T02:58:13.532Z,0.97
2023-02-27T03:01:31.952Z,1.20
2023-02-27T03:04:45.091Z,1.10
2023-02-27T03:08:03.958Z,1.37
2023-02-27T03:11:05.669Z,1.00
2023-02-27T03:14:17.776Z,1.20
2023-02-27T03:17:28.566Z,0.87
2023-02-27T03:20:39.285Z,0.80
2023-02-27T03:23:44.288Z,1.10
2023-02-27T03:26:49.154Z,1.10
2023-02-27T03:30:01.068Z,0.90
2023-02-27T03:33:11.684Z,0.90
2023-02-27T03:36:44.422Z,1.13
2023-02-27T03:39:55.124Z,1.10
2023-02-27T03:43:05.949Z,0.97
2023-02-27T03:46:23.782Z,1.13
2023-02-27T03:49:26.186Z,1.10
2023-02-27T03:52:29.752Z,1.20
2023-02-27T03:55:39.579Z,0.90
2023-02-27T03:58:41.148Z,1.03
2023-02-27T04:01:44.567Z,1.10
2023-02-27T04:04:48.478Z,1.20
2023-02-27T04:08:08.219Z,1.37
2023-02-27T04:11:34.395Z,1.03
2023-02-27T04:15:01.078Z,1.10
2023-02-27T04:18:23.745Z,1.10
2023-02-27T04:21:37.757Z,1.20
2023-02-27T04:25:06.015Z,0.83
2023-02-27T04:28:17.427Z,1.03
2023-02-27T04:31:27.828Z,1.07
2023-02-27T04:34:41.227Z,1.10
2023-02-27T04:37:55.262Z,1.20
2023-02-27T04:41:04.620Z,1.00
2023-02-27T04:44:10.774Z,1.10
2023-02-27T04:47:16.235Z,1.00
2023-02-27T04:50:24.822Z,1.07
2023-02-27T04:53:37.076Z,0.90
2023-02-27T04:56:45.558Z,1.10
2023-02-27T04:59:51.299Z,0.90
2023-02-27T05:03:01.408Z,1.10
2023-02-27T05:06:03.297Z,0.93
2023-02-27T05:09:20.403Z,0.80
2023-02-27T05:12:29.601Z,1.00
2023-02-27T05:15:37.812Z,0.80
2023-02-27T05:18:39.211Z,1.10
2023-02-27T05:21:48.143Z,0.90
2023-02-27T05:24:59.159Z,0.83
2023-02-27T05:28:08.340Z,1.10
2023-02-27T05:31:23.646Z,1.10
2023-02-27T05:34:49.488Z,1.00
2023-02-27T05:38:21.882Z,1.00
2023-02-27T05:41:28.540Z,0.90
2023-02-27T05:44:34.581Z,0.90
2023-02-27T05:47:40.495Z,0.97
2023-02-27T05:50:43.826Z,1.03
2023-02-27T05:53:53.788Z,1.30
2023-02-27T05:56:59.491Z,1.50
2023-02-27T06:00:08.586Z,1.20
2023-02-27T06:03:13.933Z,1.20
2023-02-27T06:06:18.787Z,1.63
2023-02-27T06:09:20.584Z,1.20
2023-02-27T06:12:21.969Z,1.57
2023-02-27T06:15:23.398Z,1.10
2023-02-27T06:18:24.879Z,1.30
2023-02-27T06:21:26.746Z,1.00
2023-02-27T06:24:28.176Z,1.10
2023-02-27T06:27:29.753Z,1.37
2023-02-27T06:30:31.638Z,1.20
2023-02-27T06:33:33.175Z,1.10
2023-02-27T06:36:34.703Z,1.10
2023-02-27T06:39:36.067Z,1.90
2023-02-27T06:42:44.814Z,1.30
2023-02-27T06:45:46.230Z,1.20
2023-02-27T06:48:47.653Z,1.77
2023-02-27T06:51:49.030Z,1.10
2023-02-27T06:54:50.436Z,2.43
2023-02-27T06:57:52.032Z,1.30
2023-02-27T07:00:53.408Z,1.10
2023-02-27T07:03:54.894Z,1.33
2023-02-27T07:07:33.251Z,1.37
2023-02-27T07:10:17.933Z,1.63
2023-02-27T07:13:19.957Z,1.20
2023-02-27T07:16:21.423Z,1.70
2023-02-27T07:19:24.147Z,1.53
2023-02-27T07:22:25.634Z,1.17
2023-02-27T07:25:27.041Z,1.33
2023-02-27T07:28:28.574Z,1.20
2023-02-27T07:31:30.669Z,1.10
2023-02-27T07:34:32.102Z,1.13
2023-02-27T07:37:33.589Z,1.33
2023-02-27T07:40:34.957Z,1.07
2023-02-27T07:43:36.334Z,1.40
2023-02-27T07:46:37.749Z,1.03
2023-02-27T07:49:39.161Z,1.20
2023-02-27T07:52:44.192Z,1.37
2023-02-27T07:55:45.942Z,1.30
2023-02-27T07:58:47.380Z,1.10
2023-02-27T08:01:48.747Z,1.17
2023-02-27T08:04:51.688Z,1.20
2023-02-27T08:07:53.199Z,1.00
2023-02-27T08:10:55.767Z,1.10
2023-02-27T08:14:01.632Z,1.10
2023-02-27T08:17:03.652Z,1.10
2023-02-27T08:20:07.231Z,1.10
2023-02-27T08:23:09.571Z,1.00
2023-02-27T08:26:11.002Z,1.10
2023-02-27T08:29:12.390Z,1.40
2023-02-27T08:32:13.854Z,0.90
2023-02-27T08:35:15.304Z,0.93
2023-02-27T08:38:16.841Z,1.00
2023-02-27T08:41:18.243Z,1.07
2023-02-27T08:44:20.110Z,1.10
2023-02-27T08:47:21.527Z,1.13
2023-02-27T08:50:22.929Z,1.10
2023-02-27T08:53:25.409Z,1.00
2023-02-27T08:56:27.919Z,1.20
2023-02-27T08:59:30.228Z,1.20
2023-02-27T09:02:31.970Z,0.90
2023-02-27T09:05:35.345Z,0.90
2023-02-27T09:08:36.811Z,0.93
2023-02-27T09:11:38.858Z,1.00
2023-02-27T09:14:40.359Z,1.10
2023-02-27T09:17:41.777Z,1.00
2023-02-27T09:20:43.244Z,1.10
2023-02-27T09:23:44.722Z,0.90
2023-02-27T09:26:46.808Z,1.00
2023-02-27T09:29:48.865Z,1.00
2023-02-27T09:32:50.706Z,1.10
2023-02-27T09:35:52.257Z,1.20
2023-02-27T09:38:54.001Z,1.10
2023-02-27T09:42:03.290Z,1.10
2023-02-27T09:45:07.482Z,1.20
2023-02-27T09:48:26.579Z,1.20
2023-02-27T09:51:29.581Z,1.67
2023-02-27T09:54:33.376Z,1.30
2023-02-27T09:57:40.854Z,1.07
2023-02-27T10:00:57.532Z,1.00
2023-02-27T10:04:27.835Z,1.30
2023-02-27T10:07:43.365Z,1.30
2023-02-27T10:11:07.284Z,1.10
2023-02-27T10:14:36.965Z,1.30
2023-02-27T10:17:49.915Z,1.00
2023-02-27T10:20:56.259Z,1.10
2023-02-27T10:24:15.951Z,1.00
2023-02-27T10:27:20.123Z,0.80
2023-02-27T10:30:30.487Z,1.10
2023-02-27T10:33:38.197Z,1.27
2023-02-27T10:36:40.934Z,1.10
2023-02-27T10:39:49.680Z,1.00
2023-02-27T10:42:53.579Z,1.20
2023-02-27T10:45:55.131Z,1.30
2023-02-27T10:49:00.115Z,1.03
2023-02-27T10:52:11.584Z,1.10
2023-02-27T10:55:19.732Z,1.00
2023-02-27T10:58:21.875Z,1.00
2023-02-27T11:01:23.507Z,1.20
2023-02-27T11:05:03.349Z,1.30
2023-02-27T11:08:32.159Z,1.13
2023-02-27T11:11:33.641Z,1.00
2023-02-27T11:14:35.048Z,1.10
2023-02-27T11:17:36.777Z,1.60
2023-02-27T11:20:43.260Z,1.10
2023-02-27T11:23:51.106Z,1.37
2023-02-27T11:26:58.957Z,1.00
2023-02-27T11:30:03.834Z,1.17
2023-02-27T11:33:17.612Z,1.00
2023-02-27T11:36:19.407Z,1.10
2023-02-27T11:39:33.962Z,1.27
2023-02-27T11:42:41.529Z,1.20
2023-02-27T11:46:25.634Z,1.37
2023-02-27T11:49:32.208Z,1.20
2023-02-27T11:52:50.601Z,1.20
2023-02-27T11:55:54.692Z,1.40
2023-02-27T11:59:12.284Z,1.17
2023-02-27T12:02:28.827Z,1.40
2023-02-27T12:05:38.967Z,1.43
2023-02-27T12:09:00.516Z,1.30
2023-02-27T12:12:06.016Z,0.90
2023-02-27T12:15:23.536Z,1.50
2023-02-27T12:18:48.009Z,1.30
2023-02-27T12:21:58.297Z,1.10
2023-02-27T12:25:11.996Z,1.00
2023-02-27T12:28:24.105Z,1.27
2023-02-27T12:31:34.544Z,1.30
2023-02-27T12:34:46.372Z,1.40
2023-02-27T12:37:48.130Z,0.90
2023-02-27T12:41:08.990Z,1.50
2023-02-27T12:44:28.027Z,2.00
2023-02-27T12:47:43.316Z,1.50
2023-02-27T12:50:56.134Z,2.00
2023-02-27T12:54:10.353Z,1.37
2023-02-27T12:57:43.934Z,1.33
2023-02-27T13:00:53.480Z,1.50
2023-02-27T13:04:03.326Z,1.50
2023-02-27T13:07:13.313Z,1.50
2023-02-27T13:10:26.893Z,1.10
2023-02-27T13:13:39.082Z,1.57
2023-02-27T13:16:46.401Z,1.50
2023-02-27T13:19:57.601Z,1.33
2023-02-27T13:23:15.387Z,1.20
2023-02-27T13:26:27.296Z,1.23
2023-02-27T13:29:47.413Z,1.50
2023-02-27T13:33:22.101Z,1.30
2023-02-27T13:36:35.467Z,1.20
2023-02-27T13:39:42.215Z,1.20
2023-02-27T13:42:46.634Z,1.60
2023-02-27T13:45:59.145Z,1.40
2023-02-27T13:49:20.030Z,1.73
2023-02-27T13:52:33.937Z,1.27
2023-02-27T13:55:35.386Z,1.87
2023-02-27T13:58:36.893Z,1.60
2023-02-27T14:01:39.160Z,1.50
2023-02-27T14:04:52.726Z,1.77
2023-02-27T14:07:58.957Z,1.67
2023-02-27T14:11:21.467Z,1.30
2023-02-27T14:14:44.907Z,1.13
2023-02-27T14:17:47.291Z,1.10
2023-02-27T14:20:50.180Z,1.30
2023-02-27T14:23:54.419Z,1.60
2023-02-27T14:26:56.697Z,1.13
2023-02-27T14:30:03.990Z,1.47
2023-02-27T14:33:37.558Z,1.47
2023-02-27T14:36:51.011Z,1.40
2023-02-27T14:39:54.941Z,1.40
2023-02-27T14:43:17.196Z,1.50
2023-02-27T14:46:29.379Z,1.50
2023-02-27T14:49:35.922Z,1.20
2023-02-27T14:52:42.580Z,1.20
2023-02-27T14:55:53.862Z,1.40
2023-02-27T14:59:04.405Z,1.30
2023-02-27T15:02:18.263Z,1.40
2023-02-27T15:05:26.194Z,1.33
2023-02-27T15:08:40.375Z,1.70
2023-02-27T15:11:43.179Z,1.93
2023-02-27T15:14:51.003Z,1.50
2023-02-27T15:17:54.822Z,1.40
2023-02-27T15:20:58.887Z,1.40
2023-02-27T15:24:03.814Z,1.40
2023-02-27T15:27:08.509Z,1.40
2023-02-27T15:30:20.569Z,1.30
2023-02-27T15:33:30.708Z,1.37
2023-02-27T15:36:34.276Z,1.83
2023-02-27T15:39:36.656Z,1.40
2023-02-27T15:42:39.488Z,1.30
2023-02-27T15:45:42.501Z,1.27
2023-02-27T15:48:44.018Z,1.80
2023-02-27T15:52:02.065Z,1.40
2023-02-27T15:55:06.421Z,1.87
2023-02-27T15:58:32.897Z,1.13
2023-02-27T16:01:38.802Z,1.27
2023-02-27T16:04:40.179Z,1.20
2023-02-27T16:07:43.695Z,1.70
2023-02-27T16:10:46.360Z,1.50
2023-02-27T16:13:48.261Z,1.33
2023-02-27T16:16:55.910Z,1.50
2023-02-27T16:20:01.812Z,1.30
2023-02-27T16:23:07.014Z,1.50
2023-02-27T16:26:32.082Z,1.47
2023-02-27T16:29:44.062Z,1.30
2023-02-27T16:32:45.609Z,1.40
2023-02-27T16:35:47.525Z,1.20
2023-02-27T16:38:49.473Z,1.20
2023-02-27T16:41:55.104Z,1.77
2023-02-27T16:44:56.611Z,1.90
2023-02-27T16:47:59.947Z,1.90
2023-02-27T16:51:01.851Z,1.90
2023-02-27T16:54:03.593Z,2.07
2023-02-27T16:57:05.404Z,2.20
2023-02-27T17:00:07.710Z,2.27
2023-02-27T17:03:09.201Z,2.30
2023-02-27T17:06:12.119Z,2.70
2023-02-27T17:09:13.574Z,2.40
2023-02-27T17:12:15.056Z,1.67
2023-02-27T17:15:17.035Z,1.40
2023-02-27T17:18:18.783Z,1.33
2023-02-27T17:21:20.162Z,1.23
2023-02-27T17:24:21.896Z,1.40
2023-02-27T17:27:23.266Z,1.20
2023-02-27T17:30:24.747Z,1.67
2023-02-27T17:33:26.323Z,1.43
2023-02-27T17:36:27.976Z,1.33
2023-02-27T17:39:29.610Z,1.80
2023-02-27T17:42:31.964Z,1.40
2023-02-27T17:45:33.407Z,1.40
2023-02-27T17:48:36.838Z,1.30
2023-02-27T17:51:38.234Z,1.20
2023-02-27T17:54:39.834Z,1.40
2023-02-27T17:57:41.547Z,1.30
2023-02-27T18:00:43.037Z,1.10
2023-02-27T18:03:44.476Z,1.40
2023-02-27T18:06:45.911Z,1.40
2023-02-27T18:09:47.298Z,1.57
2023-02-27T18:12:48.712Z,1.17
2023-02-27T18:15:50.269Z,1.33
2023-02-27T18:18:51.716Z,1.30
2023-02-27T18:21:53.177Z,1.53
2023-02-27T18:24:55.050Z,1.40
2023-02-27T18:27:56.906Z,1.20
2023-02-27T18:30:58.443Z,1.40
2023-02-27T18:34:00.772Z,1.20
2023-02-27T18:37:02.335Z,1.37
2023-02-27T18:40:05.857Z,1.33
2023-02-27T18:43:07.564Z,1.53
2023-02-27T18:46:11.046Z,1.43
2023-02-27T18:49:12.473Z,1.20
2023-02-27T18:52:13.935Z,1.37
2023-02-27T18:55:17.388Z,1.60
2023-02-27T18:58:18.830Z,1.83
2023-02-27T19:01:29.603Z,1.50
2023-02-27T19:04:33.955Z,1.80
2023-02-27T19:07:35.339Z,2.73
2023-02-27T19:10:41.065Z,2.10
2023-02-27T19:13:42.439Z,1.80
2023-02-27T19:16:45.959Z,2.20
2023-02-27T19:19:47.677Z,1.80
2023-02-27T19:22:49.212Z,1.50
2023-02-27T19:25:57.989Z,1.80
2023-02-27T19:28:59.448Z,2.10
2023-02-27T19:32:02.053Z,2.10
2023-02-27T19:35:04.160Z,1.73
2023-02-27T19:38:05.921Z,1.57
2023-02-27T19:41:10.723Z,2.00
2023-02-27T19:44:12.181Z,1.90
2023-02-27T19:47:13.716Z,1.93
2023-02-27T19:50:16.171Z,1.43
2023-02-27T19:53:17.701Z,2.10
2023-02-27T19:56:24.308Z,2.00
2023-02-27T19:59:25.723Z,1.60
2023-02-27T20:02:27.833Z,2.70
2023-02-27T20:05:29.328Z,2.20
2023-02-27T20:08:33.140Z,2.40
2023-02-27T20:11:34.588Z,2.03
2023-02-27T20:14:36.628Z,1.63
2023-02-27T20:17:39.682Z,2.50
2023-02-27T20:20:41.726Z,2.23
2023-02-27T20:23:45.355Z,2.00
2023-02-27T20:26:49.817Z,2.40
2023-02-27T20:29:57.470Z,2.00
2023-02-27T20:32:58.862Z,1.83
2023-02-27T20:36:03.574Z,2.47
2023-02-27T20:39:06.236Z,1.60
2023-02-27T20:42:08.134Z,2.10
2023-02-27T20:45:09.726Z,2.23
2023-02-27T20:48:11.106Z,2.27
2023-02-27T20:51:19.842Z,2.10
2023-02-27T20:54:21.533Z,2.00
2023-02-27T20:57:22.989Z,2.07
2023-02-27T21:00:26.648Z,2.27
2023-02-27T21:03:31.255Z,2.23
2023-02-27T21:06:37.722Z,2.43
2023-02-27T21:09:39.477Z,2.20
2023-02-27T21:12:41.162Z,2.70
2023-02-27T21:15:42.570Z,2.63
2023-02-27T21:18:45.203Z,2.00
2023-02-27T21:21:46.578Z,2.20
2023-02-27T21:24:49.934Z,2.20
2023-02-27T21:27:51.457Z,2.30
2023-02-27T21:30:54.465Z,2.37
2023-02-27T21:33:58.580Z,1.90
2023-02-27T21:37:02.448Z,2.40
2023-02-27T21:40:04.593Z,2.43
2023-02-27T21:43:05.966Z,2.50
2023-02-27T21:46:10.200Z,2.80
2023-02-27T21:49:25.101Z,2.23
2023-02-27T21:52:26.583Z,3.50
2023-02-27T21:55:27.960Z,2.60
2023-02-27T21:58:29.321Z,2.43
2023-02-27T22:01:31.279Z,2.43
2023-02-27T22:04:32.926Z,2.60
2023-02-27T22:07:34.296Z,2.50
2023-02-27T22:10:45.797Z,2.30
2023-02-27T22:13:47.200Z,2.63
2023-02-27T22:16:48.661Z,2.80
2023-02-27T22:19:50.078Z,4.37
2023-02-27T22:22:51.445Z,4.40
2023-02-27T22:26:01.434Z,3.13
2023-02-27T22:29:04.111Z,2.40
2023-02-27T22:32:06.449Z,2.37
2023-02-27T22:35:08.445Z,2.30
2023-02-27T22:38:09.854Z,2.13
2023-02-27T22:41:13.896Z,2.10
2023-02-27T22:44:16.433Z,2.13
2023-02-27T22:47:17.800Z,2.10
2023-02-27T22:50:19.236Z,2.30
2023-02-27T22:53:20.601Z,2.23
2023-02-27T22:56:22.706Z,2.20
2023-02-27T22:59:24.637Z,2.20
2023-02-27T23:02:26.176Z,2.37
2023-02-27T23:05:27.595Z,2.00
2023-02-27T23:08:28.959Z,1.97
2023-02-27T23:11:31.008Z,1.80
2023-02-27T23:14:33.601Z,2.13
2023-02-27T23:17:34.982Z,1.90
2023-02-27T23:20:37.861Z,1.73
2023-02-27T23:23:39.699Z,2.20
2023-02-27T23:26:44.142Z,2.20
2023-02-27T23:29:45.510Z,1.67
2023-02-27T23:32:46.946Z,1.97
2023-02-27T23:35:48.373Z,1.87
2023-02-27T23:38:49.847Z,1.90
2023-02-27T23:41:51.414Z,2.03
2023-02-27T23:45:11.138Z,2.00
2023-02-27T23:48:13.258Z,2.13
2023-02-27T23:51:14.907Z,2.00
2023-02-27T23:54:16.266Z,1.73
2023-02-27T23:57:17.670Z,2.13
